Time;durP1;ratioP1;P1;durP2;ratioP2;P2;SDS_P1;SDS_P2;PMS_P1;PMS_P2;Temp;Humidity;BMP_temperature;BMP_pressure;BME280_temperature;BME280_humidity;BME280_pressure;Samples;Min_cycle;Max_cycle;Signal;HPM_P1;HPM_P2
2021/06/21 00:00:31;;;;;;;6.50;2.22;;;22.10;74.30;;;;;;5094793;28;20465;-80
2021/06/21 00:02:56;;;;;;;5.13;2.00;;;22.10;74.30;;;;;;5094748;28;20020;-78
2021/06/21 00:05:23;;;;;;;3.72;2.35;;;22.10;74.40;;;;;;5076577;28;20356;-78
2021/06/21 00:07:48;;;;;;;7.40;2.45;;;22.10;74.50;;;;;;5094721;28;20024;-78
2021/06/21 00:10:17;;;;;;;3.75;2.13;;;22.10;74.50;;;;;;5094678;28;20493;-79
2021/06/21 00:12:44;;;;;;;3.42;2.22;;;22.00;74.50;;;;;;5076604;28;20115;-78
2021/06/21 00:15:13;;;;;;;2.95;2.30;;;22.00;74.50;;;;;;5094634;28;20519;-78
2021/06/21 00:17:38;;;;;;;3.20;2.40;;;22.00;75.20;;;;;;5094662;28;20031;-78
2021/06/21 00:20:05;;;;;;;8.38;2.63;;;22.00;74.60;;;;;;5094384;28;20390;-78
2021/06/21 00:22:31;;;;;;;3.55;2.10;;;22.00;74.70;;;;;;5094572;28;20024;-78
2021/06/21 00:24:57;;;;;;;6.72;2.33;;;22.00;74.70;;;;;;5094526;28;20070;-78
2021/06/21 00:27:25;;;;;;;3.15;2.50;;;22.00;74.90;;;;;;5094174;28;20028;-78
2021/06/21 00:29:51;;;;;;;4.28;2.60;;;21.90;74.90;;;;;;5076267;28;20115;-79
2021/06/21 00:32:16;;;;;;;3.97;2.30;;;21.90;75.00;;;;;;5094185;28;20028;-79
2021/06/21 00:34:42;;;;;;;3.20;2.47;;;21.90;75.20;;;;;;5076106;28;20047;-78
2021/06/21 00:37:08;;;;;;;2.90;2.25;;;21.80;75.30;;;;;;5093102;28;20035;-79
2021/06/21 00:39:34;;;;;;;3.45;2.38;;;21.80;75.40;;;;;;5093888;28;20063;-80
2021/06/21 00:42:00;;;;;;;10.80;2.85;;;21.80;75.60;;;;;;5093943;28;20040;-79
2021/06/21 00:44:26;;;;;;;8.77;3.10;;;21.80;75.80;;;;;;5075864;28;20028;-79
2021/06/21 00:46:52;;;;;;;4.03;2.30;;;21.70;75.80;;;;;;5094317;28;20149;-79
2021/06/21 00:49:17;;;;;;;4.80;2.42;;;21.80;76.00;;;;;;5094622;28;20391;-79
2021/06/21 00:51:43;;;;;;;3.92;2.58;;;21.80;76.10;;;;;;5094665;28;20040;-79
2021/06/21 00:54:09;;;;;;;5.18;2.92;;;21.70;76.20;;;;;;5093909;28;20455;-79
2021/06/21 00:56:35;;;;;;;5.88;2.85;;;21.70;76.40;;;;;;5094399;28;20028;-79
2021/06/21 00:59:02;;;;;;;4.32;2.20;;;21.70;76.50;;;;;;5094348;28;20032;-79
2021/06/21 01:01:29;;;;;;;3.45;2.50;;;21.60;76.60;;;;;;5095101;28;20020;-80
2021/06/21 01:03:55;;;;;;;3.40;2.30;;;21.60;76.70;;;;;;5094743;28;20393;-79
2021/06/21 01:06:21;;;;;;;4.55;2.53;;;21.60;76.90;;;;;;5095003;28;20017;-79
2021/06/21 01:08:48;;;;;;;5.00;2.60;;;21.60;77.00;;;;;;5094793;28;20082;-79
2021/06/21 01:11:15;;;;;;;8.38;2.60;;;21.60;77.80;;;;;;5094467;28;20046;-79
2021/06/21 01:14:06;;;;;;;5.85;2.50;;;21.60;77.30;;;;;;5093474;28;20067;-79
2021/06/21 01:16:41;;;;;;;3.85;2.22;;;21.60;77.40;;;;;;5093434;28;20030;-79
2021/06/21 01:19:50;;;;;;;6.05;2.47;;;21.60;77.50;;;;;;5093160;28;20039;-79
2021/06/21 01:22:35;;;;;;;5.88;2.47;;;21.50;77.50;;;;;;5067109;28;20039;-79
2021/06/21 01:25:15;;;;;;;6.20;2.60;;;21.50;77.50;;;;;;5074945;28;20028;-79
2021/06/21 01:28:06;;;;;;;3.55;2.50;;;21.50;77.50;;;;;;5093130;28;20020;-79
2021/06/21 01:31:00;;;;;;;4.45;2.50;;;21.40;77.50;;;;;;5093302;28;20035;-79
2021/06/21 01:33:26;;;;;;;11.32;2.63;;;21.40;77.40;;;;;;5092843;28;20093;-78
2021/06/21 01:36:01;;;;;;;5.13;2.35;;;21.40;77.40;;;;;;5092782;28;20099;-78
2021/06/21 01:38:52;;;;;;;2.78;2.45;;;21.40;77.50;;;;;;5092910;28;20063;-78
2021/06/21 01:41:28;;;;;;;11.63;2.47;;;21.40;77.50;;;;;;5080605;28;20524;-77
2021/06/21 01:43:56;;;;;;;3.55;2.70;;;21.30;78.10;;;;;;5092561;28;20028;-78
2021/06/21 01:46:28;;;;;;;2.85;2.38;;;21.30;77.50;;;;;;5092558;28;20024;-79
2021/06/21 01:49:01;;;;;;;4.03;2.58;;;21.30;77.60;;;;;;5092358;28;20024;-78
2021/06/21 01:51:30;;;;;;;8.65;2.47;;;21.30;77.60;;;;;;5092617;28;20099;-78
2021/06/21 01:53:59;;;;;;;8.80;2.53;;;21.30;77.70;;;;;;5092343;28;20044;-78
2021/06/21 01:56:29;;;;;;;5.20;2.60;;;21.30;77.70;;;;;;5092831;28;20032;-78
2021/06/21 01:58:57;;;;;;;4.40;2.60;;;21.30;77.80;;;;;;5092436;28;20024;-78
2021/06/21 02:01:24;;;;;;;3.97;2.55;;;21.30;77.80;;;;;;5092550;28;20024;-78
2021/06/21 02:04:00;;;;;;;4.70;2.78;;;21.30;77.90;;;;;;5074407;28;20498;-78
2021/06/21 02:06:29;;;;;;;8.40;3.10;;;21.20;78.00;;;;;;5092464;28;20024;-78
2021/06/21 02:08:56;;;;;;;7.72;2.88;;;21.30;78.10;;;;;;5074216;28;20024;-79
2021/06/21 02:11:24;;;;;;;6.50;2.85;;;21.30;78.10;;;;;;5092265;28;20016;-78
2021/06/21 02:13:51;;;;;;;6.03;3.28;;;21.30;78.20;;;;;;5092240;28;20028;-78
2021/06/21 02:16:18;;;;;;;5.55;3.05;;;21.30;78.20;;;;;;5092246;28;20032;-79
2021/06/21 02:18:46;;;;;;;5.45;2.85;;;21.40;78.30;;;;;;5074085;28;20035;-78
2021/06/21 02:21:13;;;;;;;8.98;3.10;;;21.50;78.20;;;;;;5092586;28;20022;-78
2021/06/21 02:23:40;;;;;;;6.75;3.00;;;21.60;78.00;;;;;;5092179;28;20425;-78
2021/06/21 02:26:06;;;;;;;5.15;3.00;;;21.80;77.70;;;;;;5074295;28;20024;-79
2021/06/21 02:28:36;;;;;;;6.68;3.05;;;21.90;77.30;;;;;;5092418;28;20032;-78
2021/06/21 02:31:05;;;;;;;5.28;2.80;;;22.00;77.20;;;;;;5092120;28;20024;-79
2021/06/21 02:33:31;;;;;;;7.60;3.10;;;22.30;76.90;;;;;;5092226;28;20027;-78
2021/06/21 02:35:57;;;;;;;5.97;2.65;;;22.60;76.30;;;;;;5092184;28;20378;-78
2021/06/21 02:38:22;;;;;;;10.52;2.90;;;23.00;75.50;;;;;;5092185;28;20028;-78
2021/06/21 02:40:48;;;;;;;9.38;2.80;;;23.30;74.50;;;;;;5092137;28;20028;-80
2021/06/21 02:43:14;;;;;;;5.47;2.40;;;23.60;73.80;;;;;;5092086;28;20343;-79
2021/06/21 02:45:40;;;;;;;6.00;2.65;;;24.00;72.90;;;;;;5092000;28;20514;-79
2021/06/21 02:48:08;;;;;;;5.47;2.20;;;24.50;72.00;;;;;;5091957;28;20100;-79
2021/06/21 02:50:35;;;;;;;4.07;2.35;;;25.00;70.70;;;;;;5092042;28;20470;-79
2021/06/21 02:53:16;;;;;;;6.55;2.30;;;25.30;69.60;;;;;;5091943;28;20119;-79
2021/06/21 02:55:47;;;;;;;4.22;2.22;;;25.90;68.60;;;;;;5091888;28;20099;-79
2021/06/21 02:58:24;;;;;;;3.55;2.20;;;26.50;67.60;;;;;;5091965;28;20023;-79
2021/06/21 03:00:52;;;;;;;5.25;2.50;;;27.00;65.90;;;;;;5093196;28;20020;-78
2021/06/21 03:03:24;;;;;;;5.22;2.30;;;27.50;65.00;;;;;;5096108;28;20075;-79
2021/06/21 03:05:51;;;;;;;5.00;2.42;;;28.00;63.40;;;;;;5096274;28;20024;-79
2021/06/21 03:08:21;;;;;;;6.47;2.25;;;28.40;62.50;;;;;;5096971;28;20027;-79
2021/06/21 03:10:48;;;;;;;3.53;2.10;;;28.90;61.40;;;;;;5096881;28;20091;-79
2021/06/21 03:13:17;;;;;;;4.72;2.08;;;29.20;60.00;;;;;;5096816;28;20027;-79
2021/06/21 03:15:43;;;;;;;7.68;2.08;;;29.30;59.60;;;;;;5096599;28;20016;-79
2021/06/21 03:18:10;;;;;;;4.45;2.40;;;29.50;58.90;;;;;;5097046;28;20016;-79
2021/06/21 03:20:36;;;;;;;3.47;2.47;;;29.60;58.30;;;;;;5077582;28;20070;-79
2021/06/21 03:23:04;;;;;;;5.22;2.50;;;29.80;58.20;;;;;;5095913;28;20044;-79
2021/06/21 03:25:32;;;;;;;3.40;2.08;;;30.10;57.70;;;;;;5095557;28;20020;-79
2021/06/21 03:28:10;;;;;;;4.25;2.67;;;30.40;56.90;;;;;;5095434;28;20024;-79
2021/06/21 03:30:37;;;;;;;6.28;2.55;;;30.90;56.50;;;;;;5095509;28;20038;-79
2021/06/21 03:33:03;;;;;;;3.28;2.72;;;31.50;56.10;;;;;;5077096;28;20056;-79
2021/06/21 03:35:29;;;;;;;5.43;2.90;;;32.20;54.50;;;;;;5095446;28;20055;-80
2021/06/21 03:37:55;;;;;;;6.03;2.60;;;32.40;53.50;;;;;;5095435;28;20117;-79
2021/06/21 03:40:21;;;;;;;10.02;2.67;;;32.80;52.80;;;;;;5095114;28;20020;-79
2021/06/21 03:42:47;;;;;;;4.63;2.40;;;33.20;52.00;;;;;;5095182;28;20027;-79
2021/06/21 03:45:13;;;;;;;2.53;2.33;;;33.70;51.00;;;;;;5094880;28;20547;-79
2021/06/21 03:47:40;;;;;;;7.70;2.50;;;33.80;50.60;;;;;;5094963;28;20039;-79
2021/06/21 03:50:08;;;;;;;5.45;2.30;;;34.30;49.80;;;;;;5095012;28;20073;-80
2021/06/21 03:52:33;;;;;;;7.47;2.53;;;34.50;49.20;;;;;;5094497;28;20043;-79
2021/06/21 03:55:09;;;;;;;3.78;2.20;;;34.70;48.90;;;;;;5095020;28;20020;-79
2021/06/21 03:57:43;;;;;;;4.68;2.88;;;34.90;48.60;;;;;;5094863;28;20020;-79
2021/06/21 04:00:17;;;;;;;4.65;2.30;;;35.20;47.70;;;;;;5094653;28;20028;-79
2021/06/21 04:02:43;;;;;;;4.13;2.22;;;35.20;47.80;;;;;;5094619;28;20032;-80
2021/06/21 04:05:10;;;;;;;6.72;2.53;;;35.70;47.80;;;;;;5094640;28;20518;-79
2021/06/21 04:07:36;;;;;;;8.27;2.70;;;36.20;46.80;;;;;;5094644;28;20099;-79
2021/06/21 04:10:07;;;;;;;11.50;4.22;;;36.40;46.10;;;;;;5094466;28;20149;-80
2021/06/21 04:12:34;;;;;;;9.95;3.40;;;36.50;45.70;;;;;;5094320;28;20020;-80
2021/06/21 04:15:00;;;;;;;6.03;2.38;;;37.10;46.00;;;;;;5094351;28;20016;-80
2021/06/21 04:17:26;;;;;;;7.30;2.50;;;37.70;45.20;;;;;;5094250;28;20050;-79
2021/06/21 04:19:51;;;;;;;2.70;2.17;;;38.20;44.00;;;;;;5094027;28;20097;-80
2021/06/21 04:22:18;;;;;;;5.07;2.10;;;38.40;43.40;;;;;;5075962;28;20470;-79
2021/06/21 04:24:43;;;;;;;4.85;2.50;;;38.80;43.40;;;;;;5094169;28;20028;-80
2021/06/21 04:27:12;;;;;;;3.33;2.33;;;39.20;42.80;;;;;;5094306;28;20020;-81
2021/06/21 04:29:38;;;;;;;7.35;2.97;;;39.50;42.10;;;;;;5094288;28;20020;-80
2021/06/21 04:32:04;;;;;;;10.80;2.78;;;39.70;42.00;;;;;;5094143;28;20347;-80
2021/06/21 04:34:29;;;;;;;3.20;2.58;;;39.80;41.60;;;;;;5094368;28;20103;-80
2021/06/21 04:36:55;;;;;;;8.45;2.50;;;40.00;41.60;;;;;;5094022;28;20103;-80
2021/06/21 04:39:21;;;;;;;13.68;3.25;;;40.20;41.40;;;;;;5094114;28;20028;-80
2021/06/21 04:41:46;;;;;;;7.53;2.47;;;40.50;41.00;;;;;;5076237;28;20040;-81
2021/06/21 04:44:12;;;;;;;6.95;3.10;;;40.80;40.50;;;;;;5094200;28;20348;-81
2021/06/21 04:46:38;;;;;;;6.88;2.80;;;40.80;40.70;;;;;;5093966;28;20024;-80
2021/06/21 04:49:07;;;;;;;6.80;2.50;;;40.90;40.40;;;;;;5093613;28;20028;-79
2021/06/21 04:51:35;;;;;;;6.22;2.70;;;41.20;40.40;;;;;;5093753;28;20061;-79
2021/06/21 04:54:00;;;;;;;4.43;2.50;;;41.50;39.70;;;;;;5075605;28;20050;-80
2021/06/21 04:56:26;;;;;;;14.25;3.28;;;41.40;39.10;;;;;;5094120;28;20028;-80
2021/06/21 04:58:52;;;;;;;6.43;3.45;;;41.50;39.40;;;;;;5093629;28;20028;-80
2021/06/21 05:01:18;;;;;;;11.55;2.90;;;41.80;39.10;;;;;;5093767;28;20021;-80
2021/06/21 05:03:43;;;;;;;8.63;3.58;;;42.00;39.10;;;;;;5094006;28;20032;-80
2021/06/21 05:06:09;;;;;;;5.80;2.70;;;42.10;38.80;;;;;;5075770;28;20114;-81
2021/06/21 05:08:35;;;;;;;5.25;2.65;;;42.20;38.40;;;;;;5093879;28;20032;-80
2021/06/21 05:11:00;;;;;;;14.48;3.33;;;42.20;38.50;;;;;;5094215;28;20822;-80
2021/06/21 05:13:26;;;;;;;6.75;3.17;;;42.40;38.60;;;;;;5093276;28;20035;-80
2021/06/21 05:15:52;;;;;;;9.10;3.15;;;42.70;38.70;;;;;;5093228;28;20481;-80
2021/06/21 05:18:17;;;;;;;6.10;3.03;;;43.00;38.30;;;;;;5075354;28;20035;-80
2021/06/21 05:20:43;;;;;;;10.25;3.00;;;43.10;37.90;;;;;;5093092;28;20165;-80
2021/06/21 05:23:09;;;;;;;7.95;3.03;;;43.20;38.20;;;;;;5092874;28;20020;-82
2021/06/21 05:25:36;;;;;;;5.93;3.75;;;43.50;37.80;;;;;;5093554;28;20024;-80
2021/06/21 05:28:03;;;;;;;8.57;3.22;;;44.10;37.60;;;;;;5093095;28;20380;-80
2021/06/21 05:30:29;;;;;;;7.57;3.22;;;44.70;37.10;;;;;;5091926;28;20048;-78
2021/06/21 05:32:55;;;;;;;5.03;2.92;;;45.10;36.70;;;;;;5092181;28;20024;-80
2021/06/21 05:35:21;;;;;;;7.32;3.40;;;45.60;36.20;;;;;;5091885;28;20043;-79
2021/06/21 05:37:49;;;;;;;9.38;3.30;;;46.00;36.00;;;;;;5091836;28;20027;-78
2021/06/21 05:40:16;;;;;;;9.43;3.50;;;46.20;35.70;;;;;;5091453;28;20020;-78
2021/06/21 05:42:42;;;;;;;9.35;3.30;;;46.40;35.40;;;;;;5090738;28;20013;-77
2021/06/21 05:45:08;;;;;;;7.82;3.88;;;46.60;35.20;;;;;;5091979;28;20047;-82
2021/06/21 05:47:34;;;;;;;14.02;4.20;;;46.90;35.20;;;;;;5092435;28;20481;-79
2021/06/21 05:50:00;;;;;;;19.67;8.82;;;47.10;35.00;;;;;;5091446;28;20028;-78
2021/06/21 05:52:25;;;;;;;10.38;3.80;;;47.10;34.60;;;;;;5091945;28;20047;-79
2021/06/21 05:54:58;;;;;;;7.05;3.67;;;47.30;34.40;;;;;;5089202;28;20123;-78
2021/06/21 05:57:28;;;;;;;9.32;3.50;;;47.30;34.40;;;;;;5092173;28;20024;-79
2021/06/21 05:59:54;;;;;;;7.00;3.50;;;47.40;34.30;;;;;;5091975;28;20032;-78
2021/06/21 06:02:20;;;;;;;10.32;3.65;;;47.50;34.30;;;;;;5091816;28;20501;-78
2021/06/21 06:04:46;;;;;;;14.88;3.92;;;47.50;34.10;;;;;;5091740;28;20024;-78
2021/06/21 06:07:12;;;;;;;9.45;3.00;;;47.50;33.90;;;;;;5091578;28;20031;-78
2021/06/21 06:09:41;;;;;;;13.30;4.80;;;47.30;34.10;;;;;;5092039;28;20024;-77
2021/06/21 06:12:07;;;;;;;6.00;3.35;;;47.10;34.20;;;;;;5091982;28;20024;-77
2021/06/21 06:14:33;;;;;;;7.90;3.50;;;46.80;34.60;;;;;;5091645;28;20024;-78
2021/06/21 06:16:59;;;;;;;7.18;4.32;;;46.60;34.70;;;;;;5091749;28;20028;-80
2021/06/21 06:19:25;;;;;;;7.38;3.20;;;46.50;34.80;;;;;;5091430;28;20035;-77
2021/06/21 06:21:51;;;;;;;4.50;3.22;;;46.40;35.10;;;;;;5091323;28;20020;-78
2021/06/21 06:24:17;;;;;;;6.95;3.47;;;46.40;34.80;;;;;;5091732;28;20107;-79
2021/06/21 06:26:44;;;;;;;4.80;3.10;;;46.30;34.80;;;;;;5091626;28;20039;-77
2021/06/21 06:29:14;;;;;;;9.00;3.25;;;46.30;34.90;;;;;;5091372;28;20024;-75
2021/06/21 06:31:46;;;;;;;7.07;3.38;;;46.30;34.90;;;;;;5091506;28;20354;-76
2021/06/21 06:34:12;;;;;;;5.75;3.72;;;46.40;35.10;;;;;;5091154;28;20377;-75
2021/06/21 06:36:38;;;;;;;5.82;3.40;;;46.40;35.10;;;;;;5091009;28;20028;-78
2021/06/21 06:39:05;;;;;;;5.88;3.47;;;46.40;35.10;;;;;;5091487;28;20467;-76
2021/06/21 06:41:31;;;;;;;6.47;3.25;;;46.50;34.60;;;;;;5091553;28;20024;-81
2021/06/21 06:43:57;;;;;;;16.90;4.50;;;46.40;34.80;;;;;;5091771;28;20475;-78
2021/06/21 06:46:24;;;;;;;9.10;3.45;;;46.30;34.90;;;;;;5091717;28;20082;-79
2021/06/21 06:48:50;;;;;;;7.32;3.60;;;46.30;35.00;;;;;;5073618;28;20024;-79
2021/06/21 06:51:16;;;;;;;5.07;3.60;;;46.30;34.60;;;;;;5091374;28;20028;-80
2021/06/21 06:53:51;;;;;;;7.80;4.78;;;45.80;34.60;;;;;;5091640;28;20075;-78
2021/06/21 06:59:02;;;;;;;7.93;3.63;;;45.40;35.30;;;;;;5091196;28;20544;-79
2021/06/21 07:01:28;;;;;;;6.25;3.70;;;45.30;35.30;;;;;;5091204;28;20051;-78
2021/06/21 07:03:54;;;;;;;9.90;3.90;;;45.30;35.30;;;;;;5091206;28;20075;-77
2021/06/21 07:06:20;;;;;;;11.52;4.07;;;45.00;35.10;;;;;;5091010;28;20024;-78
2021/06/21 07:08:46;;;;;;;5.38;3.40;;;44.60;35.60;;;;;;5091206;28;20099;-78
2021/06/21 07:11:13;;;;;;;8.27;3.75;;;44.30;35.80;;;;;;5091156;28;20400;-78
2021/06/21 07:13:39;;;;;;;5.85;3.30;;;44.10;35.60;;;;;;5091431;28;20501;-78
2021/06/21 07:16:05;;;;;;;5.90;3.55;;;43.90;36.10;;;;;;5091188;28;20048;-78
2021/06/21 07:18:31;;;;;;;9.50;3.42;;;43.70;36.00;;;;;;5091192;28;20081;-79
2021/06/21 07:20:56;;;;;;;8.45;3.33;;;43.30;36.00;;;;;;5091301;28;20032;-79
2021/06/21 07:23:22;;;;;;;7.63;4.38;;;42.80;36.50;;;;;;5091067;28;20016;-77
2021/06/21 07:25:48;;;;;;;18.40;4.03;;;42.60;36.80;;;;;;5091286;28;20057;-79
2021/06/21 07:28:16;;;;;;;12.50;3.80;;;42.50;36.90;;;;;;5073638;28;20028;-79
2021/06/21 07:30:43;;;;;;;7.13;3.45;;;42.40;37.20;;;;;;5091055;28;20354;-78
2021/06/21 07:33:09;;;;;;;9.27;3.22;;;42.40;37.00;;;;;;5091313;28;20036;-79
2021/06/21 07:35:34;;;;;;;11.18;3.83;;;42.30;37.10;;;;;;5091503;28;20036;-78
2021/06/21 07:38:00;;;;;;;13.45;5.35;;;42.30;37.00;;;;;;5090766;28;20052;-79
2021/06/21 07:40:26;;;;;;;10.30;4.18;;;42.40;37.00;;;;;;5090731;28;20028;-79
2021/06/21 07:42:52;;;;;;;7.32;3.70;;;42.20;37.20;;;;;;5091065;28;20020;-78
2021/06/21 07:45:17;;;;;;;10.07;5.30;;;42.20;37.40;;;;;;5090483;28;20389;-78
2021/06/21 07:47:43;;;;;;;10.07;4.05;;;42.20;37.40;;;;;;5093324;28;20031;-79
2021/06/21 07:50:10;;;;;;;11.40;4.07;;;42.10;37.30;;;;;;5095531;28;20028;-86
2021/06/21 07:52:35;;;;;;;10.75;4.18;;;41.80;37.40;;;;;;5096159;28;20083;-86
2021/06/21 07:55:01;;;;;;;13.35;4.28;;;41.50;37.20;;;;;;5096307;28;20024;-86
2021/06/21 07:57:28;;;;;;;9.45;3.90;;;40.90;37.50;;;;;;5096043;28;20020;-86
2021/06/21 07:59:55;;;;;;;13.77;5.03;;;40.30;37.80;;;;;;5096480;28;20028;-86
2021/06/21 08:02:20;;;;;;;7.35;3.40;;;39.70;38.60;;;;;;5096273;28;20030;-86
2021/06/21 08:04:47;;;;;;;7.10;3.50;;;39.20;39.40;;;;;;5095846;28;20024;-86
2021/06/21 08:07:14;;;;;;;9.13;3.95;;;38.90;39.50;;;;;;5094978;28;20443;-78
2021/06/21 08:09:40;;;;;;;5.18;3.72;;;38.30;39.60;;;;;;5093915;28;20028;-79
2021/06/21 08:12:06;;;;;;;5.45;3.42;;;37.70;40.50;;;;;;5093937;28;20470;-80
2021/06/21 08:14:36;;;;;;;6.15;3.40;;;37.20;41.40;;;;;;5094113;28;20023;-78
2021/06/21 08:17:01;;;;;;;9.73;3.72;;;37.00;41.50;;;;;;5093560;28;20411;-78
2021/06/21 08:19:27;;;;;;;15.25;4.03;;;36.80;42.20;;;;;;5093147;28;20042;-78
2021/06/21 08:21:53;;;;;;;6.43;3.28;;;36.80;42.70;;;;;;5092844;28;20027;-78
2021/06/21 08:24:18;;;;;;;6.55;3.30;;;36.70;42.40;;;;;;5093541;28;20602;-79
2021/06/21 08:26:44;;;;;;;8.07;3.40;;;36.30;42.70;;;;;;5093639;28;20073;-79
2021/06/21 08:29:10;;;;;;;6.13;3.28;;;36.00;42.80;;;;;;5075419;28;20374;-79
2021/06/21 08:31:36;;;;;;;8.23;3.40;;;35.70;43.10;;;;;;5093199;28;20035;-79
2021/06/21 08:34:02;;;;;;;8.38;3.65;;;35.20;43.30;;;;;;5093276;28;20020;-79
2021/06/21 08:36:27;;;;;;;7.38;4.43;;;34.60;43.90;;;;;;5092998;28;20024;-77
2021/06/21 08:38:53;;;;;;;11.27;3.67;;;34.10;44.50;;;;;;5092926;28;20081;-77
2021/06/21 08:41:20;;;;;;;7.53;4.00;;;33.90;45.10;;;;;;5092964;28;20038;-78
2021/06/21 08:43:47;;;;;;;7.07;3.58;;;33.90;45.40;;;;;;5093285;28;20470;-79
2021/06/21 08:46:15;;;;;;;9.25;3.55;;;33.90;45.30;;;;;;5092955;28;20049;-79
2021/06/21 08:48:44;;;;;;;10.68;3.65;;;33.80;46.00;;;;;;5092926;28;20013;-79
2021/06/21 08:51:15;;;;;;;9.07;3.30;;;33.90;45.80;;;;;;5092727;28;20016;-79
2021/06/21 08:53:41;;;;;;;4.93;3.20;;;34.00;45.40;;;;;;5092873;28;20147;-79
2021/06/21 08:56:08;;;;;;;7.18;3.25;;;33.80;45.60;;;;;;5092615;28;20099;-79
2021/06/21 08:58:34;;;;;;;7.30;3.60;;;33.70;46.20;;;;;;5091530;28;20016;-79
2021/06/21 09:00:59;;;;;;;7.63;3.33;;;33.80;46.10;;;;;;5092609;28;20191;-79
2021/06/21 09:03:25;;;;;;;6.88;3.65;;;33.70;46.20;;;;;;5092540;28;20032;-78
2021/06/21 09:05:51;;;;;;;9.20;3.53;;;33.70;46.90;;;;;;5074483;28;20020;-79
2021/06/21 09:08:17;;;;;;;6.22;3.55;;;33.70;46.60;;;;;;5094061;28;20020;-79
2021/06/21 09:10:42;;;;;;;5.15;3.33;;;33.30;46.90;;;;;;5094970;28;20059;-77
2021/06/21 09:13:13;;;;;;;8.15;3.50;;;32.90;47.30;;;;;;5093899;28;20024;-77
2021/06/21 09:15:42;;;;;;;7.05;3.58;;;32.50;48.90;;;;;;5093495;28;20067;-79
2021/06/21 09:18:35;;;;;;;7.40;3.70;;;32.20;48.60;;;;;;5093927;28;20028;-77
2021/06/21 09:21:20;;;;;;;10.63;3.60;;;32.10;49.20;;;;;;5093733;28;20023;-77
2021/06/21 09:23:47;;;;;;;6.43;4.03;;;32.10;50.00;;;;;;5093200;28;20379;-78
2021/06/21 09:26:18;;;;;;;7.28;3.63;;;32.00;49.90;;;;;;5093054;28;20094;-79
2021/06/21 09:28:44;;;;;;;9.98;3.50;;;32.00;49.90;;;;;;5092953;28;20024;-79
2021/06/21 09:31:10;;;;;;;11.65;3.63;;;32.00;49.60;;;;;;5092899;28;20077;-79
2021/06/21 09:33:36;;;;;;;8.07;3.75;;;32.00;49.60;;;;;;5092822;28;20036;-78
2021/06/21 09:36:03;;;;;;;12.75;4.03;;;31.90;49.40;;;;;;5092640;28;20111;-78
2021/06/21 09:38:28;;;;;;;11.82;3.72;;;31.80;49.80;;;;;;5092532;28;20028;-78
2021/06/21 09:40:57;;;;;;;11.20;3.70;;;31.70;50.20;;;;;;5092337;28;20020;-78
2021/06/21 09:43:34;;;;;;;8.70;3.60;;;31.60;49.80;;;;;;5092590;28;20621;-79
2021/06/21 09:46:21;;;;;;;9.90;3.65;;;31.40;50.20;;;;;;5074995;28;20426;-77
2021/06/21 09:48:49;;;;;;;10.55;3.67;;;31.20;50.40;;;;;;5092511;28;20024;-78
2021/06/21 09:51:20;;;;;;;9.90;3.75;;;31.00;50.80;;;;;;5091310;28;20028;-78
2021/06/21 09:54:00;;;;;;;;;;;30.70;51.80;;;;;;5092008;28;20363;-78
2021/06/21 09:56:36;;;;;;;11.95;3.90;;;30.60;51.80;;;;;;5091618;28;19904;-78
2021/06/21 09:59:25;;;;;;;10.75;3.80;;;30.50;52.30;;;;;;5073360;28;20058;-79
2021/06/21 10:02:25;;;;;;;7.95;3.40;;;30.40;52.50;;;;;;5091437;28;20016;-80
2021/06/21 10:04:50;;;;;;;12.25;4.47;;;30.30;52.30;;;;;;5073973;28;20024;-78
2021/06/21 10:07:45;;;;;;;10.15;3.53;;;30.30;52.70;;;;;;5090728;28;20065;-78
2021/06/21 10:10:18;;;;;;;11.30;3.20;;;30.10;53.00;;;;;;5056183;28;20032;-79
2021/06/21 10:12:44;;;;;;;12.27;3.85;;;30.00;52.20;;;;;;5091528;28;20020;-78
2021/06/21 10:15:12;;;;;;;17.02;3.60;;;30.00;52.80;;;;;;5091328;28;20078;-79
2021/06/21 10:17:38;;;;;;;9.93;4.03;;;29.90;52.50;;;;;;5091366;28;20129;-79
2021/06/21 10:20:09;;;;;;;16.40;3.72;;;29.80;52.80;;;;;;5091523;28;20390;-79
2021/06/21 10:22:36;;;;;;;10.30;4.05;;;29.80;53.10;;;;;;5091363;28;20763;-83
2021/06/21 10:25:02;;;;;;;13.18;3.72;;;29.60;53.40;;;;;;5091852;28;20039;-80
2021/06/21 10:27:31;;;;;;;6.55;3.55;;;29.50;53.70;;;;;;5091743;28;20089;-79
2021/06/21 10:29:57;;;;;;;9.57;3.60;;;29.40;53.80;;;;;;5091264;28;20107;-80
2021/06/21 10:32:29;;;;;;;6.35;3.38;;;29.30;54.00;;;;;;5092787;28;20031;-81
2021/06/21 10:34:55;;;;;;;16.48;4.03;;;29.20;53.30;;;;;;5092079;28;20584;-81
2021/06/21 10:37:25;;;;;;;11.65;3.85;;;29.20;53.90;;;;;;5091757;28;20028;-81
2021/06/21 10:39:54;;;;;;;10.32;4.10;;;29.30;54.10;;;;;;5092033;28;20069;-82
2021/06/21 10:42:20;;;;;;;9.73;3.95;;;29.20;54.10;;;;;;5091839;28;20020;-83
2021/06/21 10:44:56;;;;;;;9.38;3.90;;;29.20;53.50;;;;;;5073465;28;20382;-81
2021/06/21 10:47:26;;;;;;;11.63;4.75;;;29.20;53.50;;;;;;5091392;28;20016;-80
2021/06/21 10:50:02;;;;;;;8.35;3.95;;;29.30;53.60;;;;;;5091573;28;20028;-81
2021/06/21 10:52:48;;;;;;;9.65;4.40;;;29.30;53.40;;;;;;5091618;28;20120;-81
2021/06/21 10:55:27;;;;;;;9.93;4.07;;;29.40;53.20;;;;;;5073360;28;20078;-80
2021/06/21 10:58:04;;;;;;;9.52;4.85;;;29.30;53.10;;;;;;5092450;28;20013;-81
2021/06/21 11:00:42;;;;;;;10.98;4.82;;;29.30;53.60;;;;;;5091506;28;20111;-80
2021/06/21 11:03:29;;;;;;;11.10;4.53;;;29.40;53.80;;;;;;5092193;28;20024;-83
2021/06/21 11:05:56;;;;;;;7.80;4.75;;;29.40;53.30;;;;;;5092174;28;20027;-82
2021/06/21 11:08:25;;;;;;;12.32;4.72;;;29.40;53.40;;;;;;5092744;28;20020;-83
2021/06/21 11:10:57;;;;;;;8.23;4.78;;;29.50;53.30;;;;;;5092789;28;20024;-83
2021/06/21 11:13:35;;;;;;;14.55;4.50;;;29.40;53.00;;;;;;5092735;28;20020;-83
2021/06/21 11:16:20;;;;;;;10.13;4.30;;;29.40;53.30;;;;;;5074591;28;20028;-84
2021/06/21 11:18:48;;;;;;;10.60;4.70;;;29.30;52.80;;;;;;5092528;28;20052;-83
2021/06/21 11:21:15;;;;;;;8.85;5.40;;;29.20;53.40;;;;;;5093166;28;20038;-84
2021/06/21 11:23:46;;;;;;;11.55;4.90;;;29.20;54.10;;;;;;5096687;28;20063;-84
2021/06/21 11:26:12;;;;;;;20.03;5.30;;;29.20;53.90;;;;;;5078157;28;20106;-81
2021/06/21 11:28:42;;;;;;;14.43;5.00;;;29.10;54.50;;;;;;5099139;28;20073;-81
2021/06/21 11:31:24;;;;;;;8.88;5.10;;;29.20;55.10;;;;;;5098139;28;20547;-81
2021/06/21 11:33:55;;;;;;;;;;;29.20;55.50;;;;;;5096186;28;20055;-82
2021/06/21 11:36:43;;;;;;;7.75;5.00;;;29.30;55.00;;;;;;5096125;28;20232;-82
2021/06/21 11:39:25;;;;;;;9.40;4.78;;;29.30;55.40;;;;;;5095595;28;20351;-82
2021/06/21 11:42:04;;;;;;;12.75;3.40;;;29.20;55.40;;;;;;5096238;28;20024;-86
2021/06/21 11:44:39;;;;;;;9.45;4.22;;;29.20;54.80;;;;;;5096273;28;20559;-87
2021/06/21 11:47:14;;;;;;;6.20;3.70;;;29.10;54.80;;;;;;5096428;28;20717;-86
2021/06/21 11:49:44;;;;;;;11.40;4.13;;;29.20;55.20;;;;;;5101372;28;20074;-87
2021/06/21 11:52:22;;;;;;;9.48;3.33;;;29.20;54.80;;;;;;5099284;28;20042;-85
2021/06/21 11:54:50;;;;;;;9.13;4.70;;;29.10;54.50;;;;;;5097287;28;20082;-85
2021/06/21 11:57:17;;;;;;;12.25;4.90;;;29.10;54.90;;;;;;5095809;28;20099;-84
2021/06/21 11:59:48;;;;;;;15.65;4.85;;;29.10;55.40;;;;;;5095224;28;20109;-85
2021/06/21 12:02:22;;;;;;;10.37;4.40;;;29.10;55.60;;;;;;5095261;28;20454;-83
2021/06/21 12:04:51;;;;;;;10.25;5.28;;;29.20;55.90;;;;;;5076957;28;20024;-84
2021/06/21 12:07:34;;;;;;;10.20;4.90;;;29.10;56.70;;;;;;5095524;28;20095;-84
2021/06/21 12:10:04;;;;;;;8.88;5.15;;;29.10;57.40;;;;;;5095426;28;20084;-88
2021/06/21 12:12:32;;;;;;;5.68;5.03;;;29.10;57.90;;;;;;5096311;28;20145;-81
2021/06/21 12:14:58;;;;;;;10.10;5.07;;;29.00;58.30;;;;;;5095206;28;20424;-84
2021/06/21 12:17:27;;;;;;;11.48;5.18;;;29.10;58.80;;;;;;5095309;28;20032;-83
2021/06/21 12:20:15;;;;;;;16.65;5.72;;;29.10;58.60;;;;;;5097822;28;20424;-85
2021/06/21 12:22:57;;;;;;;10.50;5.13;;;29.00;59.00;;;;;;5095818;28;20020;-83
2021/06/21 12:25:41;;;;;;;11.23;5.32;;;29.10;59.20;;;;;;5078263;28;20119;-84
2021/06/21 12:28:23;;;;;;;13.68;5.20;;;29.10;59.40;;;;;;5085037;28;20061;-81
2021/06/21 12:30:48;;;;;;;9.98;5.43;;;29.10;59.40;;;;;;5095884;28;20028;-86
2021/06/21 12:33:44;;;;;;;12.43;5.28;;;29.10;59.00;;;;;;5077252;28;20031;-83
2021/06/21 12:36:24;;;;;;;9.73;5.15;;;29.00;59.20;;;;;;5073786;28;20040;-83
2021/06/21 12:39:06;;;;;;;9.35;5.78;;;29.00;59.60;;;;;;5094594;28;20100;-83
2021/06/21 12:41:37;;;;;;;12.93;5.38;;;29.10;60.30;;;;;;5095351;28;20048;-84
2021/06/21 12:44:11;;;;;;;10.63;5.50;;;29.20;60.10;;;;;;5076858;28;20027;-82
2021/06/21 12:46:39;;;;;;;12.60;6.15;;;29.20;60.10;;;;;;5095379;28;20047;-83
2021/06/21 12:49:08;;;;;;;10.35;5.65;;;29.20;60.10;;;;;;5095660;28;20470;-84
2021/06/21 12:51:35;;;;;;;9.18;5.60;;;29.30;60.10;;;;;;5094222;28;20069;-83
2021/06/21 12:54:01;;;;;;;8.25;5.60;;;29.30;60.30;;;;;;5094039;28;20440;-83
2021/06/21 12:56:34;;;;;;;10.45;5.28;;;29.30;60.30;;;;;;5094205;28;20474;-83
2021/06/21 12:59:01;;;;;;;13.07;5.50;;;29.30;60.30;;;;;;5093674;28;20064;-84